createdAt,value
2018-06-21T00:00:26.101Z,9.60
2018-06-21T00:01:26.202Z,7.70
2018-06-21T00:02:26.054Z,6.60
2018-06-21T00:03:26.114Z,6.60
2018-06-21T00:04:26.013Z,8.00
2018-06-21T00:05:26.127Z,6.20
2018-06-21T00:06:25.983Z,6.30
2018-06-21T00:07:26.038Z,6.90
2018-06-21T00:08:25.937Z,6.60
2018-06-21T00:09:26.053Z,8.60
2018-06-21T00:10:25.905Z,6.80
2018-06-21T00:11:25.964Z,8.50
2018-06-21T00:12:25.864Z,7.10
2018-06-21T00:13:25.980Z,7.50
2018-06-21T00:14:25.819Z,8.00
2018-06-21T00:15:25.891Z,7.30
2018-06-21T00:16:25.784Z,7.70
2018-06-21T00:17:25.906Z,6.80
2018-06-21T00:18:25.789Z,8.00
2018-06-21T00:19:25.816Z,9.00
2018-06-21T00:20:25.709Z,7.30
2018-06-21T00:21:25.833Z,9.10
2018-06-21T00:22:25.666Z,8.00
2018-06-21T00:23:25.741Z,7.60
2018-06-21T00:24:25.629Z,8.00
2018-06-21T00:25:25.756Z,8.60
2018-06-21T00:26:25.591Z,8.50
2018-06-21T00:27:25.667Z,8.30
2018-06-21T00:28:25.550Z,8.00
2018-06-21T00:29:25.738Z,8.80
2018-06-21T00:30:25.512Z,7.90
2018-06-21T00:31:25.598Z,7.90
2018-06-21T00:32:25.469Z,9.80
2018-06-21T00:33:25.608Z,7.80
2018-06-21T00:34:25.437Z,8.70
2018-06-21T00:35:25.526Z,7.60
2018-06-21T00:36:25.394Z,10.40
2018-06-21T00:37:25.535Z,9.30
2018-06-21T00:38:25.348Z,8.70
2018-06-21T00:39:25.446Z,9.90
2018-06-21T00:40:25.311Z,8.90
2018-06-21T00:41:25.461Z,8.40
2018-06-21T00:42:25.271Z,8.10
2018-06-21T00:43:25.372Z,9.60
2018-06-21T00:44:25.234Z,10.60
2018-06-21T00:45:25.446Z,9.10
2018-06-21T00:46:25.188Z,8.30
2018-06-21T00:47:25.298Z,9.30
2018-06-21T00:48:25.153Z,8.90
2018-06-21T00:49:25.311Z,10.90
2018-06-21T00:50:25.113Z,9.90
2018-06-21T00:51:25.228Z,11.70
2018-06-21T00:52:25.070Z,9.80
2018-06-21T00:53:25.235Z,9.20
2018-06-21T00:54:25.032Z,8.20
2018-06-21T00:55:25.150Z,10.40
2018-06-21T00:56:24.993Z,10.60
2018-06-21T00:57:25.164Z,8.90
2018-06-21T00:58:24.952Z,11.80
2018-06-21T00:59:25.077Z,9.30
2018-06-21T01:00:24.911Z,9.80
2018-06-21T01:01:25.089Z,9.80
2018-06-21T01:02:24.874Z,9.30
2018-06-21T01:03:25.003Z,10.50
2018-06-21T01:04:24.866Z,8.70
2018-06-21T01:05:25.019Z,9.60
2018-06-21T01:06:24.793Z,10.50
2018-06-21T01:07:24.927Z,9.60
2018-06-21T01:08:24.750Z,9.90
2018-06-21T01:09:24.844Z,10.70
2018-06-21T01:10:24.713Z,10.00
2018-06-21T01:11:24.849Z,9.50
2018-06-21T01:12:24.671Z,8.20
2018-06-21T01:13:24.767Z,10.20
2018-06-21T01:14:24.634Z,10.60
2018-06-21T01:15:24.782Z,8.00
2018-06-21T01:16:24.590Z,10.80
2018-06-21T01:17:24.691Z,9.60
2018-06-21T01:18:24.549Z,9.50
2018-06-21T01:19:24.706Z,9.30
2018-06-21T01:20:24.508Z,9.80
2018-06-21T01:21:24.625Z,11.30
2018-06-21T01:22:24.474Z,9.70
2018-06-21T01:23:24.632Z,10.40
2018-06-21T01:24:24.429Z,10.10
2018-06-21T01:25:24.495Z,10.00
2018-06-21T01:26:24.390Z,10.30
2018-06-21T01:27:24.457Z,11.60
2018-06-21T01:28:24.352Z,11.10
2018-06-21T01:29:24.364Z,10.50
2018-06-21T01:30:24.309Z,10.60
2018-06-21T01:31:24.383Z,12.90
2018-06-21T01:32:24.268Z,11.50
2018-06-21T01:33:24.294Z,12.00
2018-06-21T01:34:24.224Z,13.70
2018-06-21T01:35:24.308Z,13.90
2018-06-21T01:36:24.190Z,13.80
2018-06-21T01:37:24.219Z,13.80
2018-06-21T01:38:24.146Z,12.20
2018-06-21T01:39:24.233Z,11.90
2018-06-21T01:40:24.104Z,15.10
2018-06-21T01:41:24.145Z,14.40
2018-06-21T01:42:24.063Z,13.00
2018-06-21T01:43:24.160Z,13.30
2018-06-21T01:44:24.021Z,12.50
2018-06-21T01:45:24.071Z,14.70
2018-06-21T01:46:23.984Z,14.90
2018-06-21T01:47:24.085Z,12.80
2018-06-21T01:48:23.939Z,13.10
2018-06-21T01:49:23.996Z,14.50
2018-06-21T01:50:23.899Z,13.10
2018-06-21T01:51:24.021Z,14.00
2018-06-21T01:52:23.868Z,13.40
2018-06-21T01:53:23.923Z,12.60
2018-06-21T01:54:23.815Z,12.00
2018-06-21T01:55:23.940Z,11.90
2018-06-21T01:56:23.776Z,14.70
2018-06-21T01:57:23.849Z,12.50
2018-06-21T01:58:23.732Z,11.70
2018-06-21T01:59:23.864Z,12.50
2018-06-21T02:00:23.692Z,12.80
2018-06-21T02:01:23.776Z,13.40
2018-06-21T02:02:23.651Z,13.40
2018-06-21T02:03:23.702Z,12.70
2018-06-21T02:04:23.617Z,12.80
2018-06-21T02:05:23.704Z,13.20
2018-06-21T02:06:23.570Z,13.70
2018-06-21T02:07:23.616Z,12.40
2018-06-21T02:08:23.525Z,12.80
2018-06-21T02:09:23.632Z,12.40
2018-06-21T02:10:23.487Z,12.80
2018-06-21T02:11:23.541Z,11.80
2018-06-21T02:12:23.446Z,13.60
2018-06-21T02:13:23.559Z,14.70
2018-06-21T02:14:23.403Z,10.80
2018-06-21T02:15:23.466Z,12.60
2018-06-21T02:16:23.361Z,12.10
2018-06-21T02:17:23.481Z,13.10
2018-06-21T02:18:23.318Z,14.00
2018-06-21T02:19:23.392Z,13.00
2018-06-21T02:20:23.277Z,12.50
2018-06-21T02:21:23.409Z,13.60
2018-06-21T02:22:23.236Z,16.00
2018-06-21T02:23:23.322Z,12.80
2018-06-21T02:24:23.196Z,12.10
2018-06-21T02:25:23.335Z,12.20
2018-06-21T02:26:23.154Z,11.40
2018-06-21T02:27:23.245Z,10.70
2018-06-21T02:28:23.114Z,11.70
2018-06-21T02:29:23.259Z,12.20
2018-06-21T02:30:23.069Z,11.10
2018-06-21T02:31:23.175Z,12.90
2018-06-21T02:32:23.028Z,13.10
2018-06-21T02:33:23.186Z,12.70
2018-06-21T02:34:23.031Z,10.50
2018-06-21T02:35:23.097Z,11.90
2018-06-21T02:36:22.945Z,10.30
2018-06-21T02:37:23.008Z,11.60
2018-06-21T02:38:22.901Z,11.50
2018-06-21T02:39:23.022Z,10.60
2018-06-21T02:40:22.866Z,12.50
2018-06-21T02:41:22.933Z,9.90
2018-06-21T02:42:22.822Z,10.10
2018-06-21T02:43:22.948Z,10.10
2018-06-21T02:44:22.780Z,9.60
2018-06-21T02:45:22.860Z,12.20
2018-06-21T02:46:22.735Z,10.40
2018-06-21T02:47:22.875Z,11.50
2018-06-21T02:48:22.693Z,9.80
2018-06-21T02:49:22.785Z,10.70
2018-06-21T02:50:22.657Z,9.90
2018-06-21T02:51:22.800Z,10.00
2018-06-21T02:52:22.608Z,10.90
2018-06-21T02:53:22.712Z,10.90
2018-06-21T02:54:22.566Z,13.70
2018-06-21T02:55:22.731Z,9.60
2018-06-21T02:56:22.527Z,10.70
2018-06-21T02:57:22.638Z,11.00
2018-06-21T02:58:22.484Z,10.30
2018-06-21T02:59:22.651Z,11.80
2018-06-21T03:00:22.445Z,11.30
2018-06-21T03:01:22.561Z,10.50
2018-06-21T03:02:22.403Z,10.50
2018-06-21T03:03:22.574Z,11.30
2018-06-21T03:04:22.357Z,11.40
2018-06-21T03:05:22.490Z,10.50
2018-06-21T03:06:22.315Z,11.30
2018-06-21T03:07:22.502Z,10.60
2018-06-21T03:08:22.323Z,11.10
2018-06-21T03:09:22.415Z,11.50
2018-06-21T03:10:22.233Z,10.10
2018-06-21T03:11:22.326Z,9.70
2018-06-21T03:12:22.192Z,11.40
2018-06-21T03:13:22.342Z,10.80
2018-06-21T03:14:22.149Z,10.50
2018-06-21T03:15:22.253Z,11.90
2018-06-21T03:16:22.104Z,10.50
2018-06-21T03:17:22.268Z,11.50
2018-06-21T03:18:22.060Z,9.50
2018-06-21T03:19:22.180Z,11.50
2018-06-21T03:20:22.024Z,11.90
2018-06-21T03:21:22.192Z,10.40
2018-06-21T03:22:21.984Z,11.20
2018-06-21T03:23:22.005Z,9.50
2018-06-21T03:24:21.936Z,11.40
2018-06-21T03:25:22.016Z,12.30
2018-06-21T03:26:21.897Z,11.00
2018-06-21T03:27:21.927Z,12.00
2018-06-21T03:28:21.850Z,14.60
2018-06-21T03:29:21.942Z,10.20
2018-06-21T03:30:21.807Z,10.70
2018-06-21T03:31:21.854Z,11.20
2018-06-21T03:32:21.763Z,10.90
2018-06-21T03:33:21.871Z,13.20
2018-06-21T03:34:21.724Z,9.60
2018-06-21T03:35:21.780Z,11.40
2018-06-21T03:36:21.683Z,11.50
2018-06-21T03:37:21.691Z,10.20
2018-06-21T03:38:21.639Z,11.60
2018-06-21T03:39:21.711Z,12.10
2018-06-21T03:40:21.597Z,10.80
2018-06-21T03:41:21.627Z,13.90
2018-06-21T03:42:21.553Z,10.30
2018-06-21T03:43:21.635Z,11.00
2018-06-21T03:44:21.510Z,11.10
2018-06-21T03:45:21.546Z,12.10
2018-06-21T03:46:21.467Z,11.40
2018-06-21T03:47:21.560Z,11.60
2018-06-21T03:48:21.426Z,12.70
2018-06-21T03:49:21.473Z,10.60
2018-06-21T03:50:21.381Z,11.10
2018-06-21T03:54:24.724Z,11.20
2018-06-21T03:55:24.613Z,11.60
2018-06-21T03:57:17.659Z,12.30
2018-06-21T03:58:17.646Z,12.70
2018-06-21T04:00:10.618Z,11.40
2018-06-21T04:01:10.524Z,12.00
2018-06-21T04:03:03.583Z,12.20
2018-06-21T04:04:03.477Z,12.00
2018-06-21T04:05:03.562Z,12.00
2018-06-21T04:06:03.450Z,12.50
2018-06-21T04:07:03.471Z,13.60
2018-06-21T04:08:03.392Z,13.50
2018-06-21T04:09:03.486Z,12.10
2018-06-21T04:10:03.351Z,11.50
2018-06-21T04:11:03.358Z,11.10
2018-06-21T04:12:03.304Z,11.00
2018-06-21T04:13:03.410Z,11.00
2018-06-21T04:14:03.264Z,11.80
2018-06-21T04:15:03.324Z,11.30
2018-06-21T04:16:03.222Z,11.90
2018-06-21T04:17:03.332Z,10.90
2018-06-21T04:18:03.181Z,12.10
2018-06-21T04:19:03.243Z,10.60
2018-06-21T04:20:03.145Z,12.10
2018-06-21T04:21:03.217Z,14.00
2018-06-21T04:22:03.103Z,11.90
2018-06-21T04:23:03.169Z,10.70
2018-06-21T04:24:03.049Z,13.00
2018-06-21T04:25:03.186Z,15.10
2018-06-21T04:26:03.005Z,12.80
2018-06-21T04:27:03.141Z,13.60
2018-06-21T04:28:02.966Z,18.10
2018-06-21T04:29:03.114Z,15.90
2018-06-21T04:30:02.924Z,14.70
2018-06-21T04:31:03.033Z,16.20
2018-06-21T04:32:02.886Z,15.00
2018-06-21T04:33:02.934Z,12.80
2018-06-21T04:34:02.833Z,13.80
2018-06-21T04:35:02.951Z,12.40
2018-06-21T04:36:02.810Z,15.00
2018-06-21T04:37:02.860Z,16.90
2018-06-21T04:38:02.757Z,14.30
2018-06-21T04:39:02.876Z,13.80
2018-06-21T04:40:02.718Z,12.90
2018-06-21T04:41:02.788Z,13.00
2018-06-21T04:42:02.680Z,13.10
2018-06-21T04:43:02.799Z,13.10
2018-06-21T04:44:02.634Z,13.70
2018-06-21T04:45:02.714Z,13.50
2018-06-21T04:46:02.583Z,14.70
2018-06-21T04:47:02.726Z,14.30
2018-06-21T04:48:02.543Z,15.00
2018-06-21T04:49:02.638Z,14.90
2018-06-21T04:50:02.501Z,15.20
2018-06-21T04:51:02.607Z,18.00
2018-06-21T04:52:02.457Z,18.00
2018-06-21T04:53:02.561Z,18.30
2018-06-21T04:54:02.416Z,17.80
2018-06-21T04:55:02.581Z,15.90
2018-06-21T04:56:02.379Z,16.20
2018-06-21T04:57:02.496Z,17.40
2018-06-21T04:58:02.328Z,18.80
2018-06-21T04:59:02.407Z,17.70
2018-06-21T05:00:02.285Z,17.80
2018-06-21T05:01:02.417Z,18.30
2018-06-21T05:02:02.244Z,17.60
2018-06-21T05:03:02.337Z,19.40
2018-06-21T05:04:02.203Z,18.50
2018-06-21T05:05:02.348Z,19.00
2018-06-21T05:06:02.157Z,18.40
2018-06-21T05:07:02.260Z,19.00
2018-06-21T05:08:02.117Z,18.50
2018-06-21T05:09:02.278Z,18.90
2018-06-21T05:10:02.073Z,17.80
2018-06-21T05:11:02.183Z,18.30
2018-06-21T05:12:02.035Z,18.30
2018-06-21T05:13:02.202Z,20.50
2018-06-21T05:14:01.984Z,20.90
2018-06-21T05:15:02.103Z,20.50
2018-06-21T05:16:01.949Z,20.80
2018-06-21T05:17:02.125Z,19.50
2018-06-21T05:18:01.902Z,20.30
2018-06-21T05:19:02.039Z,21.70
2018-06-21T05:20:01.867Z,21.40
2018-06-21T05:21:02.058Z,19.90
2018-06-21T05:22:01.819Z,21.00
2018-06-21T05:23:01.963Z,21.80
2018-06-21T05:24:01.777Z,21.10
2018-06-21T05:25:01.899Z,20.40
2018-06-21T05:26:01.732Z,23.10
2018-06-21T05:27:01.788Z,24.00
2018-06-21T05:28:01.696Z,22.80
2018-06-21T05:29:01.701Z,21.60
2018-06-21T05:30:01.646Z,23.50
2018-06-21T05:31:01.714Z,21.20
2018-06-21T05:32:01.632Z,21.90
2018-06-21T05:33:01.628Z,20.40
2018-06-21T05:34:01.563Z,22.60
2018-06-21T05:35:01.641Z,21.90
2018-06-21T05:36:01.516Z,21.20
2018-06-21T05:37:01.551Z,21.00
2018-06-21T05:38:01.481Z,21.60
2018-06-21T05:39:01.566Z,21.90
2018-06-21T05:40:01.435Z,21.00
2018-06-21T05:41:01.477Z,21.90
2018-06-21T05:42:01.396Z,21.20
2018-06-21T05:43:01.490Z,21.20
2018-06-21T05:44:01.353Z,20.50
2018-06-21T05:45:01.402Z,20.80
2018-06-21T05:46:01.323Z,22.80
2018-06-21T05:47:01.315Z,20.30
2018-06-21T05:48:01.264Z,20.90
2018-06-21T05:49:01.329Z,21.60
2018-06-21T05:50:01.222Z,20.30
2018-06-21T05:51:01.201Z,20.00
2018-06-21T05:52:01.261Z,21.80
2018-06-21T05:53:01.166Z,21.40
2018-06-21T05:54:01.160Z,20.80
2018-06-21T05:55:01.119Z,21.00
2018-06-21T05:56:01.099Z,20.50
2018-06-21T05:57:01.075Z,20.70
2018-06-21T05:58:01.085Z,20.70
2018-06-21T05:59:01.029Z,20.20
2018-06-21T06:00:01.101Z,20.90
2018-06-21T06:01:00.989Z,20.80
2018-06-21T06:02:01.084Z,20.40
2018-06-21T06:03:00.946Z,19.40
2018-06-21T06:04:01.027Z,20.20
2018-06-21T06:05:00.908Z,20.30
2018-06-21T06:06:00.937Z,19.50
2018-06-21T06:07:00.863Z,18.50
2018-06-21T06:08:00.949Z,18.70
2018-06-21T06:09:00.819Z,21.10
2018-06-21T06:10:00.896Z,19.20
2018-06-21T06:11:00.777Z,19.70
2018-06-21T06:12:00.773Z,19.00
2018-06-21T06:13:00.735Z,18.50
2018-06-21T06:14:00.831Z,19.50
2018-06-21T06:15:00.691Z,18.60
2018-06-21T06:16:00.701Z,19.00
2018-06-21T06:17:00.648Z,18.80
2018-06-21T06:18:00.717Z,19.30
2018-06-21T06:19:00.628Z,18.70
2018-06-21T06:20:00.655Z,18.70
2018-06-21T06:21:00.567Z,19.70
2018-06-21T06:22:00.643Z,18.40
2018-06-21T06:23:00.526Z,18.90
2018-06-21T06:24:00.613Z,19.60
2018-06-21T06:25:00.483Z,20.20
2018-06-21T06:26:00.573Z,19.60
2018-06-21T06:27:00.437Z,20.60
2018-06-21T06:28:00.485Z,19.70
2018-06-21T06:29:00.403Z,17.50
2018-06-21T06:30:00.395Z,18.40
2018-06-21T06:31:00.355Z,18.20
2018-06-21T06:32:00.412Z,17.70
2018-06-21T06:33:00.313Z,18.50
2018-06-21T06:34:00.324Z,19.30
2018-06-21T06:35:00.274Z,17.50
2018-06-21T06:36:00.339Z,17.30
2018-06-21T06:37:00.244Z,19.40
2018-06-21T06:38:00.350Z,17.00
2018-06-21T06:39:00.184Z,18.10
2018-06-21T06:40:00.265Z,18.10
2018-06-21T06:41:00.145Z,16.80
2018-06-21T06:42:00.174Z,16.60
2018-06-21T06:43:00.101Z,16.50
2018-06-21T06:44:00.187Z,16.90
2018-06-21T06:45:00.074Z,18.00
2018-06-21T06:46:00.101Z,19.60
2018-06-21T06:47:00.023Z,18.00
2018-06-21T06:48:00.117Z,17.00
2018-06-21T06:48:59.976Z,16.70
2018-06-21T06:50:00.031Z,17.00
2018-06-21T06:50:59.934Z,16.70
2018-06-21T06:51:59.937Z,19.90
2018-06-21T06:52:59.889Z,18.10
2018-06-21T06:53:59.952Z,17.70
2018-06-21T06:54:59.854Z,17.00
2018-06-21T06:55:59.864Z,17.00
2018-06-21T06:56:59.813Z,17.90
2018-06-21T06:57:59.877Z,17.90
2018-06-21T06:58:59.767Z,15.30
2018-06-21T06:59:59.787Z,15.80
2018-06-21T07:00:59.728Z,15.60
2018-06-21T07:01:59.801Z,16.10
2018-06-21T07:02:59.685Z,14.30
2018-06-21T07:03:59.710Z,14.30
2018-06-21T07:04:59.640Z,14.10
2018-06-21T07:05:59.725Z,13.70
2018-06-21T07:06:59.601Z,12.80
2018-06-21T07:07:59.640Z,13.60
2018-06-21T07:08:59.564Z,12.60
2018-06-21T07:09:59.650Z,12.90
2018-06-21T07:10:59.516Z,12.40
2018-06-21T07:11:59.562Z,13.40
2018-06-21T07:12:59.476Z,13.50
2018-06-21T07:13:59.480Z,14.90
2018-06-21T07:14:59.433Z,12.40
2018-06-21T07:15:59.490Z,13.50
2018-06-21T07:16:59.393Z,11.60
2018-06-21T07:17:59.399Z,8.20
2018-06-21T07:18:59.351Z,9.80
2018-06-21T07:19:59.417Z,9.60
2018-06-21T07:20:59.312Z,6.30
2018-06-21T07:21:59.327Z,5.00
2018-06-21T07:22:59.270Z,5.60
2018-06-21T07:23:59.337Z,5.30
2018-06-21T07:24:59.227Z,6.10
2018-06-21T07:25:59.256Z,6.30
2018-06-21T07:26:59.193Z,7.90
2018-06-21T07:27:59.269Z,5.00
2018-06-21T07:28:59.144Z,5.90
2018-06-21T07:29:59.180Z,7.10
2018-06-21T07:30:59.108Z,5.10
2018-06-21T07:31:59.195Z,6.00
2018-06-21T07:32:59.066Z,4.80
2018-06-21T07:34:00.130Z,7.10
2018-06-21T07:34:59.019Z,6.80
2018-06-21T07:35:59.021Z,7.70
2018-06-21T07:36:58.980Z,7.00
2018-06-21T07:37:59.034Z,5.60
2018-06-21T07:38:58.984Z,6.40
2018-06-21T07:39:58.944Z,7.00
2018-06-21T07:40:58.894Z,6.40
2018-06-21T07:41:59.983Z,5.20
2018-06-21T07:42:58.856Z,5.40
2018-06-21T07:43:58.877Z,9.10
2018-06-21T07:44:58.809Z,6.40
2018-06-21T07:45:58.887Z,6.80
2018-06-21T07:46:58.795Z,5.60
2018-06-21T07:47:58.795Z,6.10
2018-06-21T07:48:58.731Z,8.50
2018-06-21T07:49:58.812Z,4.80
2018-06-21T07:50:58.685Z,6.90
2018-06-21T07:51:58.726Z,7.00
2018-06-21T07:52:58.648Z,8.50
2018-06-21T07:53:58.749Z,7.50
2018-06-21T07:54:58.605Z,7.10
2018-06-21T07:55:58.648Z,6.50
2018-06-21T07:56:58.562Z,5.30
2018-06-21T07:57:58.562Z,4.80
2018-06-21T07:58:58.542Z,7.30
2018-06-21T07:59:58.573Z,6.50
2018-06-21T08:00:58.479Z,8.00
2018-06-21T08:01:58.487Z,4.80
2018-06-21T08:02:58.438Z,5.90
2018-06-21T08:03:58.501Z,5.90
2018-06-21T08:04:58.412Z,9.50
2018-06-21T08:05:58.407Z,6.20
2018-06-21T08:06:58.359Z,6.30
2018-06-21T08:07:58.426Z,6.30
2018-06-21T08:08:58.316Z,4.90
2018-06-21T08:09:58.338Z,6.60
2018-06-21T08:10:58.274Z,9.20
2018-06-21T08:11:58.351Z,8.60
2018-06-21T08:12:58.282Z,6.70
2018-06-21T08:13:58.266Z,7.90
2018-06-21T08:14:58.195Z,6.60
2018-06-21T08:15:58.281Z,5.70
2018-06-21T08:16:58.150Z,6.70
2018-06-21T08:17:58.191Z,5.90
2018-06-21T08:18:58.110Z,5.70
2018-06-21T08:19:58.102Z,7.00
2018-06-21T08:20:58.070Z,7.70
2018-06-21T08:21:58.114Z,7.00
2018-06-21T08:22:58.028Z,5.70
2018-06-21T08:23:58.026Z,6.50
2018-06-21T08:24:57.992Z,9.10
2018-06-21T08:25:58.068Z,5.70
2018-06-21T08:26:57.944Z,3.80
2018-06-21T08:27:57.944Z,6.00
2018-06-21T08:28:57.927Z,4.50
2018-06-21T08:29:57.966Z,6.80
2018-06-21T08:30:57.863Z,5.10
2018-06-21T08:31:57.878Z,6.70
2018-06-21T08:32:57.821Z,7.30
2018-06-21T08:33:57.897Z,7.50
2018-06-21T08:34:57.784Z,7.00
2018-06-21T08:35:57.804Z,5.70
2018-06-21T08:36:57.741Z,7.20
2018-06-21T08:37:57.822Z,5.40
2018-06-21T08:38:57.747Z,4.10
2018-06-21T08:39:57.733Z,5.70
2018-06-21T08:40:57.657Z,6.30
2018-06-21T08:41:57.746Z,7.70
2018-06-21T08:42:57.621Z,7.20
2018-06-21T08:43:57.599Z,6.80
2018-06-21T08:44:57.582Z,7.90
2018-06-21T08:45:57.729Z,5.60
2018-06-21T08:46:57.536Z,9.50
2018-06-21T08:47:57.585Z,6.10
2018-06-21T08:48:57.514Z,7.90
2018-06-21T08:49:57.496Z,6.00
2018-06-21T08:50:57.457Z,6.00
2018-06-21T08:51:57.533Z,6.00
2018-06-21T08:52:57.414Z,7.10
2018-06-21T08:53:57.421Z,6.30
2018-06-21T08:54:57.408Z,6.70
2018-06-21T08:55:57.433Z,6.70
2018-06-21T08:56:57.337Z,6.10
2018-06-21T08:57:57.351Z,4.60
2018-06-21T08:58:57.306Z,7.30
2018-06-21T08:59:57.369Z,5.80
2018-06-21T09:00:57.253Z,8.10
2018-06-21T09:01:57.286Z,5.80
2018-06-21T09:02:57.217Z,5.60
2018-06-21T09:03:57.293Z,6.30
2018-06-21T09:04:57.173Z,5.10
2018-06-21T09:05:57.203Z,8.50
2018-06-21T09:06:57.129Z,5.50
2018-06-21T09:07:57.218Z,5.90
2018-06-21T09:08:57.090Z,7.90
2018-06-21T09:09:57.126Z,6.20
2018-06-21T09:10:57.048Z,7.10
2018-06-21T09:11:57.139Z,5.60
2018-06-21T09:12:57.008Z,6.30
2018-06-21T09:13:57.053Z,4.40
2018-06-21T09:14:56.969Z,5.00
2018-06-21T09:15:57.032Z,5.00
2018-06-21T09:16:56.933Z,8.40
2018-06-21T09:17:56.976Z,4.30
2018-06-21T09:18:56.883Z,5.10
2018-06-21T09:19:56.889Z,6.90
2018-06-21T09:20:56.849Z,6.40
2018-06-21T09:21:56.901Z,5.60
2018-06-21T09:22:56.805Z,6.80
2018-06-21T09:23:56.813Z,7.70
2018-06-21T09:24:56.763Z,4.60
2018-06-21T09:25:56.828Z,9.10
2018-06-21T09:26:56.729Z,4.80
2018-06-21T09:27:56.739Z,5.20
2018-06-21T09:28:56.688Z,6.70
2018-06-21T09:29:56.760Z,5.70
2018-06-21T09:30:56.643Z,8.70
2018-06-21T09:31:56.666Z,9.30
2018-06-21T09:32:56.606Z,5.30
2018-06-21T09:33:56.685Z,5.40
2018-06-21T09:34:56.563Z,6.70
2018-06-21T09:35:56.599Z,6.00
2018-06-21T09:36:56.523Z,10.00
2018-06-21T09:37:56.606Z,5.20
2018-06-21T09:38:56.488Z,9.60
2018-06-21T09:39:56.525Z,8.20
2018-06-21T09:40:56.443Z,7.40
2018-06-21T09:41:56.543Z,7.60
2018-06-21T09:42:56.403Z,6.40
2018-06-21T09:44:03.829Z,7.30
2018-06-21T09:44:56.365Z,6.00
2018-06-21T09:45:56.361Z,7.10
2018-06-21T09:46:56.332Z,6.60
2018-06-21T09:47:56.375Z,8.10
2018-06-21T09:48:56.279Z,7.00
2018-06-21T09:49:56.286Z,6.10
2018-06-21T09:50:56.242Z,6.80
2018-06-21T09:51:56.301Z,8.00
2018-06-21T09:52:56.204Z,6.50
2018-06-21T09:53:56.212Z,6.30
2018-06-21T09:54:56.160Z,7.70
2018-06-21T09:55:56.225Z,6.00
2018-06-21T09:56:56.126Z,7.60
2018-06-21T09:57:56.136Z,11.00
2018-06-21T09:58:56.084Z,9.80
2018-06-21T09:59:56.151Z,4.90
2018-06-21T10:00:56.046Z,8.70
2018-06-21T10:01:56.063Z,7.70
2018-06-21T10:02:56.003Z,5.30
2018-06-21T10:03:56.077Z,5.60
2018-06-21T10:04:55.981Z,6.60
2018-06-21T10:05:55.987Z,7.60
2018-06-21T10:06:55.927Z,7.60
2018-06-21T10:07:56.008Z,6.20
2018-06-21T10:08:55.886Z,4.70
2018-06-21T10:09:55.913Z,8.10
2018-06-21T10:10:55.850Z,6.60
2018-06-21T10:11:55.930Z,5.80
2018-06-21T10:12:55.807Z,8.20
2018-06-21T10:13:55.843Z,6.10
2018-06-21T10:14:55.764Z,6.00
2018-06-21T10:15:55.857Z,6.80
2018-06-21T10:16:55.728Z,6.50
2018-06-21T10:17:55.767Z,6.30
2018-06-21T10:18:55.689Z,4.00
2018-06-21T10:19:55.794Z,6.80
2018-06-21T10:20:55.648Z,5.50
2018-06-21T10:21:55.700Z,6.60
2018-06-21T10:22:55.612Z,7.40
2018-06-21T10:23:55.708Z,6.60
2018-06-21T10:24:55.573Z,9.00
2018-06-21T10:25:55.617Z,7.00
2018-06-21T10:26:55.534Z,7.60
2018-06-21T10:27:55.527Z,6.70
2018-06-21T10:28:55.500Z,7.80
2018-06-21T10:29:55.552Z,8.20
2018-06-21T10:30:55.455Z,5.00
2018-06-21T10:31:55.456Z,5.40
2018-06-21T10:32:55.418Z,7.80
2018-06-21T10:33:55.468Z,5.20
2018-06-21T10:34:55.384Z,4.50
2018-06-21T10:35:55.380Z,4.20
2018-06-21T10:36:55.341Z,5.40
2018-06-21T10:37:55.394Z,7.50
2018-06-21T10:38:55.304Z,6.50
2018-06-21T10:39:55.306Z,5.90
2018-06-21T10:40:55.268Z,8.60
2018-06-21T10:41:55.321Z,4.60
2018-06-21T10:42:55.237Z,7.60
2018-06-21T10:43:55.287Z,6.40
2018-06-21T10:44:55.191Z,4.60
2018-06-21T10:45:55.248Z,7.30
2018-06-21T10:46:55.154Z,7.30
2018-06-21T10:47:55.159Z,6.90
2018-06-21T10:48:55.115Z,4.40
2018-06-21T10:49:55.175Z,3.70
2018-06-21T10:50:55.083Z,4.40
2018-06-21T10:51:55.107Z,5.60
2018-06-21T10:52:55.038Z,7.90
2018-06-21T10:53:55.102Z,5.10
2018-06-21T10:54:55.006Z,6.10
2018-06-21T10:55:55.010Z,5.80
2018-06-21T10:56:54.969Z,8.10
2018-06-21T10:57:55.026Z,4.90
2018-06-21T10:58:54.932Z,6.20
2018-06-21T10:59:54.931Z,8.20
2018-06-21T11:00:54.890Z,6.00
2018-06-21T11:01:54.953Z,5.20
2018-06-21T11:02:54.856Z,3.80
2018-06-21T11:03:54.863Z,7.90
2018-06-21T11:04:54.817Z,6.70
2018-06-21T11:05:54.870Z,6.70
2018-06-21T11:06:54.778Z,5.30
2018-06-21T11:07:54.787Z,5.50
2018-06-21T11:08:54.742Z,7.20
2018-06-21T11:09:54.802Z,4.90
2018-06-21T11:10:54.709Z,5.40
2018-06-21T11:11:54.712Z,5.00
2018-06-21T11:12:54.667Z,4.70
2018-06-21T11:13:54.728Z,6.10
2018-06-21T11:14:54.693Z,5.30
2018-06-21T11:15:54.641Z,9.30
2018-06-21T11:16:54.647Z,4.70
2018-06-21T11:17:54.653Z,8.10
2018-06-21T11:18:54.559Z,7.80
2018-06-21T11:19:54.565Z,6.20
2018-06-21T11:20:54.517Z,6.80
2018-06-21T11:21:54.578Z,7.20
2018-06-21T11:22:54.482Z,6.80
2018-06-21T11:23:54.490Z,5.50
2018-06-21T11:24:54.444Z,4.80
2018-06-21T11:25:54.511Z,5.10
2018-06-21T11:26:54.409Z,4.40
2018-06-21T11:27:54.444Z,6.10
2018-06-21T11:28:54.372Z,8.50
2018-06-21T11:29:54.430Z,5.00
2018-06-21T11:30:54.327Z,6.80
2018-06-21T11:31:54.341Z,4.70
2018-06-21T11:32:54.299Z,7.20
2018-06-21T11:33:54.358Z,3.60
2018-06-21T11:34:54.258Z,6.10
2018-06-21T11:35:54.271Z,7.40
2018-06-21T11:36:54.226Z,5.20
2018-06-21T11:37:54.283Z,6.70
2018-06-21T11:38:54.184Z,7.40
2018-06-21T11:39:54.193Z,5.50
2018-06-21T11:40:54.150Z,4.60
2018-06-21T11:41:54.207Z,5.60
2018-06-21T11:42:54.130Z,5.60
2018-06-21T11:43:54.121Z,3.70
2018-06-21T11:44:54.079Z,6.60
2018-06-21T11:45:54.137Z,4.50
2018-06-21T11:46:54.047Z,7.90
2018-06-21T11:47:54.050Z,6.10
2018-06-21T11:48:54.006Z,3.00
2018-06-21T11:49:54.061Z,5.60
2018-06-21T11:50:53.968Z,3.20
2018-06-21T11:51:53.977Z,3.80
2018-06-21T11:52:53.933Z,9.20
2018-06-21T11:53:53.988Z,7.40
2018-06-21T11:54:53.902Z,6.30
2018-06-21T11:55:53.899Z,4.40
2018-06-21T11:56:53.859Z,7.80
2018-06-21T11:57:53.914Z,6.30
2018-06-21T11:58:53.827Z,6.90
2018-06-21T11:59:53.830Z,5.60
2018-06-21T12:00:53.791Z,5.40
2018-06-21T12:01:53.903Z,7.10
2018-06-21T12:02:53.752Z,7.80
2018-06-21T12:03:53.756Z,7.40
2018-06-21T12:04:53.717Z,10.70
2018-06-21T12:05:53.769Z,6.90
2018-06-21T12:06:53.681Z,4.80
2018-06-21T12:07:53.681Z,6.50
2018-06-21T12:08:53.647Z,6.30
2018-06-21T12:09:53.693Z,6.70
2018-06-21T12:10:53.611Z,7.60
2018-06-21T12:11:53.708Z,6.50
2018-06-21T12:12:53.583Z,6.20
2018-06-21T12:13:53.617Z,6.90
2018-06-21T12:14:53.540Z,6.00
2018-06-21T12:15:53.631Z,6.50
2018-06-21T12:16:53.507Z,7.50
2018-06-21T12:17:53.543Z,7.40
2018-06-21T12:18:53.473Z,8.40
2018-06-21T12:19:53.563Z,9.60
2018-06-21T12:20:53.471Z,8.10
2018-06-21T12:21:53.470Z,10.90
2018-06-21T12:22:53.414Z,8.50
2018-06-21T12:23:53.484Z,6.50
2018-06-21T12:24:53.369Z,10.50
2018-06-21T12:25:53.394Z,6.10
2018-06-21T12:26:53.339Z,10.70
2018-06-21T12:27:53.411Z,6.70
2018-06-21T12:28:53.297Z,9.00
2018-06-21T12:29:53.322Z,8.50
2018-06-21T12:30:53.263Z,6.70
2018-06-21T12:31:53.369Z,5.40
2018-06-21T12:32:53.232Z,9.10
2018-06-21T12:33:53.247Z,6.40
2018-06-21T12:34:53.195Z,8.30
2018-06-21T12:35:53.266Z,7.10
2018-06-21T12:36:53.157Z,7.00
2018-06-21T12:37:53.172Z,7.90
2018-06-21T12:38:53.118Z,9.10
2018-06-21T12:39:53.190Z,5.40
2018-06-21T12:40:53.085Z,5.20
2018-06-21T12:41:53.100Z,8.60
2018-06-21T12:42:53.055Z,5.80
2018-06-21T12:43:53.114Z,8.20
2018-06-21T12:44:53.020Z,5.40
2018-06-21T12:45:53.026Z,8.00
2018-06-21T12:46:52.974Z,8.30
2018-06-21T12:47:53.040Z,7.10
2018-06-21T12:48:52.942Z,8.90
2018-06-21T12:49:52.953Z,6.40
2018-06-21T12:50:52.906Z,6.70
2018-06-21T12:51:52.965Z,9.70
2018-06-21T12:52:52.868Z,6.50
2018-06-21T12:53:52.877Z,5.70
2018-06-21T12:54:52.836Z,8.10
2018-06-21T12:55:52.890Z,6.90
2018-06-21T12:56:52.798Z,6.10
2018-06-21T12:57:52.801Z,8.30
2018-06-21T12:58:52.761Z,6.50
2018-06-21T12:59:52.816Z,9.00
2018-06-21T13:00:52.726Z,7.00
2018-06-21T13:01:52.727Z,9.00
2018-06-21T13:02:52.693Z,7.30
2018-06-21T13:03:52.743Z,9.00
2018-06-21T13:04:52.657Z,8.60
2018-06-21T13:05:52.758Z,7.40
2018-06-21T13:06:52.623Z,7.70
2018-06-21T13:07:53.693Z,6.50
2018-06-21T13:08:52.596Z,9.40
2018-06-21T13:09:52.581Z,6.60
2018-06-21T13:10:52.540Z,5.70
2018-06-21T13:11:52.594Z,7.00